createdAt,value
2022-12-17T00:00:09.555Z,6.43
2022-12-17T00:03:18.529Z,5.05
2022-12-17T00:06:23.044Z,5.82
2022-12-17T00:09:27.015Z,6.45
2022-12-17T00:12:30.792Z,5.57
2022-12-17T00:15:35.135Z,4.68
2022-12-17T00:18:39.516Z,4.43
2022-12-17T00:21:43.597Z,4.65
2022-12-17T00:24:47.584Z,4.63
2022-12-17T00:27:51.602Z,3.85
2022-12-17T00:30:55.600Z,4.40
2022-12-17T00:33:59.754Z,4.22
2022-12-17T00:37:03.715Z,4.20
2022-12-17T00:43:27.460Z,4.88
2022-12-17T00:46:31.077Z,3.95
2022-12-17T00:49:35.034Z,3.75
2022-12-17T00:52:38.890Z,3.95
2022-12-17T00:55:42.803Z,3.50
2022-12-17T00:58:46.830Z,4.28
2022-12-17T01:01:51.153Z,3.90
2022-12-17T01:04:56.036Z,3.50
2022-12-17T01:08:01.005Z,2.60
2022-12-17T01:11:05.020Z,3.50
2022-12-17T01:14:09.999Z,3.72
2022-12-17T01:17:14.001Z,3.42
2022-12-17T01:20:17.961Z,3.65
2022-12-17T01:32:35.142Z,2.58
2022-12-17T01:35:39.711Z,3.20
2022-12-17T01:38:43.633Z,3.35
2022-12-17T01:41:47.640Z,3.35
2022-12-17T01:44:57.801Z,3.10
2022-12-17T01:48:34.305Z,2.97
2022-12-17T01:51:38.808Z,2.83
2022-12-17T01:54:42.769Z,2.85
2022-12-17T01:57:47.446Z,3.17
2022-12-17T02:00:51.383Z,3.45
2022-12-17T02:03:55.319Z,3.00
2022-12-17T02:07:10.011Z,3.55
2022-12-17T02:10:52.587Z,2.58
2022-12-17T02:14:09.068Z,2.35
2022-12-17T02:17:19.457Z,3.05
2022-12-17T02:20:32.936Z,3.40
2022-12-17T02:23:45.584Z,3.28
2022-12-17T02:26:56.090Z,2.75
2022-12-17T02:30:04.270Z,2.63
2022-12-17T02:33:09.298Z,3.40
2022-12-17T02:36:20.812Z,2.63
2022-12-17T02:39:24.711Z,3.15
2022-12-17T02:42:29.378Z,3.75
2022-12-17T02:45:35.598Z,2.88
2022-12-17T02:48:39.444Z,3.25
2022-12-17T02:51:45.336Z,3.13
2022-12-17T02:54:51.803Z,3.00
2022-12-17T02:57:55.789Z,2.92
2022-12-17T03:00:59.686Z,2.67
2022-12-17T03:04:03.612Z,2.47
2022-12-17T03:07:07.622Z,2.45
2022-12-17T03:10:11.398Z,2.80
2022-12-17T03:13:15.315Z,2.85
2022-12-17T03:19:29.825Z,2.33
2022-12-17T03:22:33.823Z,2.40
2022-12-17T03:25:38.099Z,3.35
2022-12-17T03:28:42.261Z,3.95
2022-12-17T03:31:46.243Z,2.70
2022-12-17T03:34:50.187Z,2.92
2022-12-17T03:37:53.914Z,3.17
2022-12-17T03:40:57.898Z,3.08
2022-12-17T03:44:02.345Z,2.97
2022-12-17T03:47:06.120Z,2.45
2022-12-17T03:59:22.676Z,2.67
2022-12-17T04:02:26.640Z,3.28
2022-12-17T04:05:30.591Z,3.22
2022-12-17T04:08:34.504Z,3.40
2022-12-17T04:11:38.090Z,2.58
2022-12-17T04:14:42.189Z,2.50
2022-12-17T04:17:46.283Z,2.58
2022-12-17T04:20:51.544Z,2.35
2022-12-17T04:23:55.529Z,2.58
2022-12-17T04:26:59.479Z,2.10
2022-12-17T04:30:03.237Z,1.83
2022-12-17T04:33:07.244Z,2.00
2022-12-17T04:36:11.283Z,2.40
2022-12-17T04:39:15.314Z,3.20
2022-12-17T04:42:35.936Z,2.03
2022-12-17T04:45:39.459Z,2.00
2022-12-17T04:48:43.401Z,1.77
2022-12-17T04:54:51.050Z,2.00
2022-12-17T05:00:58.888Z,2.15
2022-12-17T05:04:02.979Z,2.33
2022-12-17T05:07:06.883Z,2.85
2022-12-17T05:16:22.690Z,3.33
2022-12-17T05:19:26.518Z,2.63
2022-12-17T05:22:30.542Z,2.53
2022-12-17T05:25:34.584Z,2.72
2022-12-17T05:28:38.553Z,3.35
2022-12-17T05:31:42.514Z,3.22
2022-12-17T05:34:46.405Z,2.95
2022-12-17T05:37:52.390Z,3.50
2022-12-17T05:40:56.499Z,3.58
2022-12-17T05:44:00.745Z,3.00
2022-12-17T05:47:04.759Z,2.45
2022-12-17T05:50:08.730Z,3.75
2022-12-17T05:53:12.467Z,2.88
2022-12-17T05:56:16.001Z,3.30
2022-12-17T05:59:20.051Z,2.55
2022-12-17T06:02:24.363Z,2.65
2022-12-17T06:05:28.754Z,2.78
2022-12-17T06:08:32.494Z,2.72
2022-12-17T06:15:00.684Z,2.50
2022-12-17T06:18:17.106Z,2.53
2022-12-17T06:21:21.477Z,2.33
2022-12-17T06:24:26.064Z,2.75
2022-12-17T06:27:30.137Z,2.75
2022-12-17T06:30:33.741Z,2.38
2022-12-17T06:33:38.173Z,2.45
2022-12-17T06:36:42.976Z,2.20
2022-12-17T06:39:46.805Z,2.75
2022-12-17T06:42:50.830Z,2.25
2022-12-17T06:45:54.928Z,2.50
2022-12-17T06:48:58.645Z,2.65
2022-12-17T06:55:06.432Z,1.70
2022-12-17T06:58:17.699Z,1.70
2022-12-17T07:01:35.496Z,2.70
2022-12-17T07:04:40.144Z,2.15
2022-12-17T07:07:43.977Z,2.30
2022-12-17T07:10:47.977Z,3.13
2022-12-17T07:13:51.936Z,2.30
2022-12-17T07:16:55.870Z,2.70
2022-12-17T07:19:59.993Z,2.30
2022-12-17T07:26:07.859Z,3.33
2022-12-17T07:29:11.774Z,2.55
2022-12-17T07:32:15.504Z,2.15
2022-12-17T07:35:19.629Z,1.92
2022-12-17T07:38:24.185Z,2.10
2022-12-17T07:41:29.593Z,2.63
2022-12-17T07:44:33.527Z,2.17
2022-12-17T07:47:37.672Z,2.55
2022-12-17T07:50:41.818Z,1.85
2022-12-17T07:53:45.873Z,1.98
2022-12-17T07:56:49.875Z,1.90
2022-12-17T07:59:53.815Z,2.03
2022-12-17T08:02:57.683Z,1.60
2022-12-17T08:06:02.028Z,1.65
2022-12-17T08:09:05.869Z,1.67
2022-12-17T08:15:13.964Z,1.80
2022-12-17T08:18:26.455Z,1.75
2022-12-17T08:21:31.242Z,1.60
2022-12-17T08:24:35.224Z,1.35
2022-12-17T08:27:39.338Z,2.38
2022-12-17T08:30:43.700Z,1.90
2022-12-17T08:36:51.811Z,2.10
2022-12-17T08:39:55.679Z,1.92
2022-12-17T08:42:59.764Z,2.40
2022-12-17T08:49:11.412Z,2.53
2022-12-17T08:52:15.189Z,2.33
2022-12-17T08:58:23.261Z,3.35
2022-12-17T09:07:37.524Z,3.17
2022-12-17T09:10:41.144Z,2.70
2022-12-17T09:13:45.025Z,3.25
2022-12-17T09:16:49.271Z,2.80
2022-12-17T09:19:53.367Z,3.53
2022-12-17T09:22:57.350Z,2.95
2022-12-17T09:26:01.425Z,3.03
2022-12-17T09:29:05.524Z,3.15
2022-12-17T09:32:09.550Z,2.75
2022-12-17T09:35:13.498Z,3.20
2022-12-17T09:38:17.585Z,2.63
2022-12-17T09:41:45.359Z,2.83
2022-12-17T09:45:25.208Z,4.10
2022-12-17T09:48:57.890Z,3.40
2022-12-17T09:52:01.708Z,4.00
2022-12-17T09:55:10.360Z,3.75
2022-12-17T09:58:14.437Z,3.80
2022-12-17T10:01:18.546Z,4.50
2022-12-17T10:04:25.686Z,3.28
2022-12-17T10:07:37.457Z,3.15
2022-12-17T10:10:48.120Z,2.78
2022-12-17T10:13:51.932Z,2.72
2022-12-17T10:17:07.071Z,3.47
2022-12-17T10:20:14.311Z,3.22
2022-12-17T10:23:18.307Z,3.08
2022-12-17T10:26:25.745Z,3.67
2022-12-17T10:29:43.895Z,3.00
2022-12-17T10:32:50.855Z,2.92
2022-12-17T10:39:00.233Z,3.28
2022-12-17T10:42:04.415Z,3.75
2022-12-17T10:45:08.390Z,3.00
2022-12-17T10:48:12.380Z,3.50
2022-12-17T10:51:32.792Z,3.40
2022-12-17T10:54:50.035Z,3.97
2022-12-17T10:57:58.087Z,3.13
2022-12-17T11:01:02.544Z,2.97
2022-12-17T11:04:17.122Z,2.83
2022-12-17T11:07:22.144Z,2.50
2022-12-17T11:10:34.299Z,2.53
2022-12-17T11:13:52.128Z,2.90
2022-12-17T11:17:03.874Z,2.40
2022-12-17T11:20:17.966Z,3.33
2022-12-17T11:26:33.215Z,4.53
2022-12-17T11:29:37.293Z,2.55
2022-12-17T11:33:11.625Z,2.60
2022-12-17T11:36:30.245Z,2.47
2022-12-17T11:39:54.909Z,2.67
2022-12-17T11:43:06.425Z,2.80
2022-12-17T11:46:37.565Z,3.13
2022-12-17T11:50:04.091Z,3.67
2022-12-17T11:53:27.509Z,2.92
2022-12-17T11:56:49.688Z,3.25
2022-12-17T12:00:03.845Z,2.70
2022-12-17T12:03:40.722Z,2.92
2022-12-17T12:06:47.985Z,3.15
2022-12-17T12:10:01.959Z,3.10
2022-12-17T12:13:18.958Z,3.95
2022-12-17T12:16:52.779Z,2.78
2022-12-17T12:20:11.966Z,3.10
2022-12-17T12:23:45.711Z,3.10
2022-12-17T12:27:22.546Z,2.92
2022-12-17T12:30:48.369Z,3.13
2022-12-17T12:33:55.401Z,4.32
2022-12-17T12:37:01.880Z,3.60
2022-12-17T12:40:15.996Z,4.47
2022-12-17T12:43:23.176Z,3.22
2022-12-17T12:46:37.062Z,3.28
2022-12-17T12:50:02.524Z,3.55
2022-12-17T12:53:06.772Z,3.13
2022-12-17T12:56:10.828Z,3.92
2022-12-17T12:59:15.017Z,4.63
2022-12-17T13:02:18.993Z,4.40
2022-12-17T13:05:34.498Z,5.35
2022-12-17T13:08:23.867Z,4.35
2022-12-17T13:11:32.381Z,4.55
2022-12-17T13:14:31.872Z,4.90
2022-12-17T13:17:17.966Z,4.65
2022-12-17T13:20:32.593Z,4.43
2022-12-17T13:23:50.313Z,5.45
2022-12-17T13:26:43.958Z,5.75
2022-12-17T13:32:31.314Z,4.80
2022-12-17T13:35:54.369Z,5.38
2022-12-17T13:38:58.476Z,6.22
2022-12-17T13:41:44.770Z,5.80
2022-12-17T13:44:44.797Z,5.70
2022-12-17T13:47:34.647Z,6.10
2022-12-17T13:50:33.779Z,5.35
2022-12-17T13:53:20.927Z,6.15
2022-12-17T13:56:07.459Z,6.13
2022-12-17T13:58:55.420Z,6.20
2022-12-17T14:01:50.433Z,6.38
2022-12-17T14:04:37.655Z,6.47
2022-12-17T14:07:26.025Z,6.63
2022-12-17T14:10:17.421Z,7.15
2022-12-17T14:13:08.406Z,5.88
2022-12-17T14:15:54.830Z,6.45
2022-12-17T14:18:42.447Z,7.72
2022-12-17T14:21:29.598Z,8.32
2022-12-17T14:24:16.805Z,7.50
2022-12-17T14:27:02.165Z,7.50
2022-12-17T14:29:47.687Z,8.55
2022-12-17T14:32:37.133Z,8.20
2022-12-17T14:35:25.513Z,8.05
2022-12-17T14:38:37.081Z,7.07
2022-12-17T14:41:43.138Z,8.38
2022-12-17T14:44:31.127Z,6.43
2022-12-17T14:47:37.553Z,7.07
2022-12-17T14:50:23.053Z,7.13
2022-12-17T14:53:27.791Z,7.57
2022-12-17T14:56:23.463Z,7.28
2022-12-17T14:59:38.128Z,7.95
2022-12-17T15:02:30.510Z,6.28
2022-12-17T15:05:17.029Z,7.30
2022-12-17T15:08:02.269Z,6.18
2022-12-17T15:10:48.160Z,7.75
2022-12-17T15:13:34.080Z,6.80
2022-12-17T15:16:19.948Z,6.72
2022-12-17T15:19:05.476Z,6.47
2022-12-17T15:21:51.216Z,7.55
2022-12-17T15:24:36.500Z,8.27
2022-12-17T15:27:22.212Z,7.40
2022-12-17T15:30:09.748Z,6.57
2022-12-17T15:32:55.023Z,5.75
2022-12-17T15:35:43.633Z,5.80
2022-12-17T15:38:29.114Z,6.30
2022-12-17T15:41:32.986Z,6.43
2022-12-17T15:44:18.689Z,5.45
2022-12-17T15:47:04.233Z,6.40
2022-12-17T15:49:49.930Z,5.55
2022-12-17T15:52:35.751Z,5.93
2022-12-17T15:55:21.353Z,5.95
2022-12-17T15:58:08.140Z,6.35
2022-12-17T16:00:53.535Z,6.57
2022-12-17T16:03:40.280Z,6.03
2022-12-17T16:06:26.281Z,6.72
2022-12-17T16:09:11.371Z,6.18
2022-12-17T16:11:57.709Z,6.55
2022-12-17T16:14:43.194Z,7.78
2022-12-17T16:17:28.980Z,7.70
2022-12-17T16:20:14.808Z,7.38
2022-12-17T16:23:01.199Z,8.00
2022-12-17T16:25:58.925Z,10.00
2022-12-17T16:28:44.615Z,8.32
2022-12-17T16:31:30.115Z,9.52
2022-12-17T16:34:16.294Z,10.82
2022-12-17T16:37:01.711Z,11.80
2022-12-17T16:39:47.247Z,11.13
2022-12-17T16:42:32.746Z,11.77
2022-12-17T16:45:19.673Z,13.02
2022-12-17T16:48:05.597Z,9.93
2022-12-17T16:50:51.664Z,10.27
2022-12-17T16:53:37.226Z,16.10
2022-12-17T16:56:25.277Z,18.33
2022-12-17T16:59:12.099Z,12.18
2022-12-17T17:01:58.032Z,10.90
2022-12-17T17:04:43.609Z,9.07
2022-12-17T17:07:29.174Z,10.35
2022-12-17T17:10:14.605Z,8.18
2022-12-17T17:13:00.204Z,8.10
2022-12-17T17:15:45.863Z,8.45
2022-12-17T17:18:31.789Z,8.40
2022-12-17T17:21:28.257Z,7.97
2022-12-17T17:24:21.163Z,7.60
2022-12-17T17:27:07.440Z,8.48
2022-12-17T17:29:53.847Z,8.70
2022-12-17T17:32:41.159Z,9.00
2022-12-17T17:35:26.673Z,8.68
2022-12-17T17:38:12.432Z,10.20
2022-12-17T17:40:58.233Z,8.50
2022-12-17T17:43:43.994Z,10.82
2022-12-17T17:46:30.332Z,8.23
2022-12-17T17:49:16.294Z,8.07
2022-12-17T17:52:10.637Z,9.93
2022-12-17T17:54:56.950Z,8.73
2022-12-17T17:57:42.448Z,8.07
2022-12-17T18:00:28.297Z,7.03
2022-12-17T18:03:14.144Z,8.07
2022-12-17T18:06:03.948Z,7.03
2022-12-17T18:08:49.705Z,7.25
2022-12-17T18:11:36.709Z,6.57
2022-12-17T18:14:22.125Z,7.38
2022-12-17T18:17:07.800Z,7.88
2022-12-17T18:19:53.509Z,5.50
2022-12-17T18:22:38.933Z,6.45
2022-12-17T18:25:24.769Z,5.78
2022-12-17T18:28:10.317Z,5.88
2022-12-17T18:30:55.818Z,6.88
2022-12-17T18:33:45.979Z,7.53
2022-12-17T18:36:37.676Z,6.65
2022-12-17T18:39:25.373Z,7.95
2022-12-17T18:42:29.265Z,6.75
2022-12-17T18:45:15.138Z,6.95
2022-12-17T18:48:00.627Z,6.63
2022-12-17T18:50:46.584Z,6.55
2022-12-17T18:53:31.821Z,6.75
2022-12-17T18:56:37.963Z,7.35
2022-12-17T18:59:28.842Z,7.00
2022-12-17T19:02:15.757Z,8.75
2022-12-17T19:05:01.164Z,7.68
2022-12-17T19:07:46.733Z,6.93
2022-12-17T19:10:35.032Z,7.20
2022-12-17T19:13:20.700Z,8.13
2022-12-17T19:16:12.563Z,8.07
2022-12-17T19:19:02.190Z,8.77
2022-12-17T19:21:48.784Z,9.50
2022-12-17T19:24:38.060Z,9.50
2022-12-17T19:27:23.644Z,9.60
2022-12-17T19:30:09.690Z,10.77
2022-12-17T19:32:55.796Z,12.52
2022-12-17T19:35:41.286Z,11.90
2022-12-17T19:38:26.910Z,13.05
2022-12-17T19:41:16.150Z,13.00
2022-12-17T19:44:07.436Z,11.65
2022-12-17T19:46:52.894Z,10.68
2022-12-17T19:49:38.414Z,14.85
2022-12-17T19:52:24.225Z,13.73
2022-12-17T19:55:10.040Z,13.73
2022-12-17T19:57:56.537Z,13.65
2022-12-17T20:00:41.965Z,14.95
2022-12-17T20:03:27.646Z,14.45
2022-12-17T20:06:16.554Z,15.05
2022-12-17T20:09:05.182Z,14.15
2022-12-17T20:11:51.529Z,16.02
2022-12-17T20:14:37.844Z,16.77
2022-12-17T20:17:26.126Z,15.95
2022-12-17T20:20:13.557Z,17.83
2022-12-17T20:22:58.907Z,18.13
2022-12-17T20:25:44.429Z,19.55
2022-12-17T20:28:29.982Z,17.50
2022-12-17T20:31:18.669Z,19.77
2022-12-17T20:34:09.162Z,21.10
2022-12-17T20:36:54.604Z,19.60
2022-12-17T20:39:40.330Z,20.00
2022-12-17T20:42:25.813Z,24.15
2022-12-17T20:45:11.506Z,21.92
2022-12-17T20:47:57.216Z,22.25
2022-12-17T20:50:43.615Z,26.27
2022-12-17T20:53:28.753Z,23.50
2022-12-17T20:56:17.783Z,23.23
2022-12-17T20:59:06.398Z,23.42
2022-12-17T21:01:55.888Z,24.50
2022-12-17T21:04:41.808Z,24.98
2022-12-17T21:07:27.531Z,26.42
2022-12-17T21:10:13.148Z,26.05
2022-12-17T21:13:17.009Z,26.38
2022-12-17T21:16:06.055Z,26.23
2022-12-17T21:18:53.541Z,24.65
2022-12-17T21:21:39.355Z,22.98
2022-12-17T21:24:24.725Z,24.80
2022-12-17T21:27:14.686Z,25.73
2022-12-17T21:30:01.472Z,25.60
2022-12-17T21:32:51.817Z,25.25
2022-12-17T21:35:37.615Z,27.88
2022-12-17T21:38:23.181Z,26.33
2022-12-17T21:41:11.669Z,26.13
2022-12-17T21:43:59.985Z,26.50
2022-12-17T21:46:50.033Z,24.58
2022-12-17T21:49:36.109Z,24.52
2022-12-17T21:52:44.012Z,24.02
2022-12-17T21:55:29.502Z,25.65
2022-12-17T21:58:15.581Z,26.23
2022-12-17T22:01:22.364Z,25.20
2022-12-17T22:04:07.916Z,25.45
2022-12-17T22:06:58.516Z,19.50
2022-12-17T22:10:17.393Z,21.52
2022-12-17T22:13:21.394Z,25.13
2022-12-17T22:18:53.571Z,23.33
2022-12-17T22:21:41.103Z,23.38
2022-12-17T22:24:26.861Z,25.13
2022-12-17T22:27:14.855Z,24.83
2022-12-17T22:30:18.961Z,25.63
2022-12-17T22:33:20.951Z,24.08
2022-12-17T22:39:15.996Z,24.17
2022-12-17T22:42:29.531Z,24.17
2022-12-17T22:44:49.261Z,23.38
2022-12-17T22:45:46.990Z,22.90
2022-12-17T22:48:33.874Z,24.52
2022-12-17T22:51:26.649Z,26.02
2022-12-17T22:54:15.300Z,21.02
2022-12-17T22:57:36.487Z,24.35
2022-12-17T23:00:13.795Z,22.60
2022-12-17T23:02:59.709Z,23.90
2022-12-17T23:05:45.617Z,23.23
2022-12-17T23:08:31.142Z,21.15
2022-12-17T23:11:19.370Z,22.95
2022-12-17T23:14:07.223Z,21.48
2022-12-17T23:16:52.702Z,21.75
2022-12-17T23:19:38.342Z,22.55
2022-12-17T23:22:23.902Z,20.70
2022-12-17T23:25:10.188Z,20.38
2022-12-17T23:27:55.636Z,24.98
2022-12-17T23:30:40.954Z,23.05
2022-12-17T23:33:26.401Z,20.92
2022-12-17T23:36:30.336Z,21.27
2022-12-17T23:42:01.516Z,21.17
2022-12-17T23:44:48.104Z,22.92
2022-12-17T23:47:33.765Z,18.13
2022-12-17T23:50:19.234Z,22.10
2022-12-17T23:53:04.716Z,22.65
2022-12-17T23:55:51.079Z,20.15
2022-12-17T23:58:38.155Z,23.42
